PWSweather.com
Personal Weather Stations
Station Observations
IHTIMAN1
Neighbourhood 1, IhtimanBG 2050

Neighbourhood 1IhtimanBG 2050

Lat: 42.436852, Lon: 23.817921

Elevation: 2066

Station Type: Oregon Scientific WMR968

http://ihtiman-meteo.com

High Low Average
Temperature 69.5°F20.8°C 45.1°F7.3°C 55.9°F13.3°C
Dew Point 47.2°F8.4°C 33.5°F0.8°C 39.9°F4.4°C
Winds 10.4 mph 16.7 kmh Calm Calm 4.0 mph SW6.4 kmh SW
Wind Gusts 16.1 mph25.9 kmh -- 6.0 mph9.7 kmh
Humidity 93% 32% 59%
Pressure 29.94 in1013.9 mb 29.86 in1011.2 mb -
Precipitation 0.00 in0.0 mm - -
Hour Temp Dew Point Humidity Winds Wind Gusts Pressure Precip Precip Rate Daily Precip Total
12:00 AM 50.0°F10.0°C 42.7°F5.9°C 76% 3.5 mph N5.6 kmh N 4.6 mph7.4 kmh 29.88 in1011.9 mb - 0.00 in0.0 mm 0.00 in0.0 mm
12:10 AM 49.8°F9.9°C 42.6°F5.9°C 76% 3.5 mph 5.6 kmh 3.5 mph5.6 kmh 29.88 in1011.9 mb - 0.00 in0.0 mm 0.00 in0.0 mm
12:20 AM 49.6°F9.8°C 42.7°F5.9°C 77% 3.5 mph N5.6 kmh N 5.8 mph9.3 kmh 29.88 in1011.9 mb - 0.00 in0.0 mm 0.00 in0.0 mm
12:30 AM 49.5°F9.7°C 42.9°F6.1°C 78% 3.5 mph N5.6 kmh N 5.8 mph9.3 kmh 29.88 in1011.9 mb - 0.00 in0.0 mm 0.00 in0.0 mm
12:40 AM 49.5°F9.7°C 43.2°F6.2°C 79% 2.3 mph NNW3.7 kmh NNW 5.8 mph9.3 kmh 29.88 in1011.9 mb - 0.00 in0.0 mm 0.00 in0.0 mm
12:50 AM 49.5°F9.7°C 43.2°F6.2°C 79% 4.6 mph N7.4 kmh N 8.1 mph13.0 kmh 29.88 in1011.9 mb - 0.00 in0.0 mm 0.00 in0.0 mm
01:00 AM 49.3°F9.6°C 43.0°F6.1°C 79% 3.5 mph N5.6 kmh N 4.6 mph7.4 kmh 29.88 in1011.9 mb - 0.00 in0.0 mm 0.00 in0.0 mm
01:10 AM 49.1°F9.5°C 42.9°F6.1°C 79% 3.5 mph NW5.6 kmh NW 4.6 mph7.4 kmh 29.88 in1011.9 mb - 0.00 in0.0 mm 0.00 in0.0 mm
01:20 AM 49.1°F9.5°C 43.2°F6.2°C 80% 4.6 mph N7.4 kmh N 5.8 mph9.3 kmh 29.88 in1011.9 mb - 0.00 in0.0 mm 0.00 in0.0 mm
01:30 AM 49.6°F9.8°C 44.0°F6.7°C 81% 5.8 mph NNW9.3 kmh NNW 8.1 mph13.0 kmh 29.88 in1011.9 mb - 0.00 in0.0 mm 0.00 in0.0 mm
01:40 AM 50.0°F10.0°C 44.4°F6.9°C 81% 4.6 mph NNW7.4 kmh NNW 9.2 mph14.8 kmh 29.88 in1011.9 mb - 0.00 in0.0 mm 0.00 in0.0 mm
01:50 AM 50.0°F10.0°C 44.7°F7.1°C 82% 8.1 mph NW13.0 kmh NW 9.2 mph14.8 kmh 29.88 in1011.9 mb - 0.00 in0.0 mm 0.00 in0.0 mm
02:00 AM 50.0°F10.0°C 44.7°F7.1°C 82% 5.8 mph NNW9.3 kmh NNW 9.2 mph14.8 kmh 29.88 in1011.9 mb - 0.00 in0.0 mm 0.00 in0.0 mm
02:10 AM 49.8°F9.9°C 44.9°F7.2°C 83% 3.5 mph N5.6 kmh N 5.8 mph9.3 kmh 29.88 in1011.9 mb - 0.00 in0.0 mm 0.00 in0.0 mm
02:20 AM 49.6°F9.8°C 45.0°F7.2°C 84% 3.5 mph N5.6 kmh N 5.8 mph9.3 kmh 29.88 in1011.9 mb - 0.00 in0.0 mm 0.00 in0.0 mm
02:30 AM 49.5°F9.7°C 45.1°F7.3°C 85% 3.5 mph N5.6 kmh N 5.8 mph9.3 kmh 29.88 in1011.9 mb - 0.00 in0.0 mm 0.00 in0.0 mm
02:40 AM 49.3°F9.6°C 45.3°F7.4°C 86% 3.5 mph NNW5.6 kmh NNW 5.8 mph9.3 kmh 29.88 in1011.9 mb - 0.00 in0.0 mm 0.00 in0.0 mm
02:50 AM 48.9°F9.4°C 44.9°F7.2°C 86% 2.3 mph N3.7 kmh N 3.5 mph5.6 kmh 29.88 in1011.9 mb - 0.00 in0.0 mm 0.00 in0.0 mm
03:00 AM 48.7°F9.3°C 45.0°F7.2°C 87% 2.3 mph N3.7 kmh N 3.5 mph5.6 kmh 29.88 in1011.9 mb - 0.00 in0.0 mm 0.00 in0.0 mm
03:10 AM 48.6°F9.2°C 45.2°F7.3°C 88% 2.3 mph N3.7 kmh N 3.5 mph5.6 kmh 29.88 in1011.9 mb - 0.00 in0.0 mm 0.00 in0.0 mm
03:20 AM 48.6°F9.2°C 45.2°F7.3°C 88% 3.5 mph N5.6 kmh N 5.8 mph9.3 kmh 29.88 in1011.9 mb - 0.00 in0.0 mm 0.00 in0.0 mm
03:30 AM 48.7°F9.3°C 45.3°F7.4°C 88% 3.5 mph N5.6 kmh N 3.5 mph5.6 kmh 29.88 in1011.9 mb - 0.00 in0.0 mm 0.00 in0.0 mm
03:40 AM 48.8°F9.3°C 45.1°F7.3°C 87% 2.3 mph N3.7 kmh N 4.6 mph7.4 kmh 29.88 in1011.9 mb - 0.00 in0.0 mm 0.00 in0.0 mm
03:50 AM 48.9°F9.4°C 44.9°F7.2°C 86% 3.5 mph N5.6 kmh N 4.6 mph7.4 kmh 29.88 in1011.9 mb - 0.00 in0.0 mm 0.00 in0.0 mm
04:00 AM 48.9°F9.4°C 44.6°F7.0°C 85% 3.5 mph N5.6 kmh N 5.8 mph9.3 kmh 29.88 in1011.9 mb - 0.00 in0.0 mm 0.00 in0.0 mm
04:10 AM 48.9°F9.4°C 44.6°F7.0°C 85% 4.6 mph N7.4 kmh N 8.1 mph13.0 kmh 29.88 in1011.9 mb - 0.00 in0.0 mm 0.00 in0.0 mm
04:20 AM 48.8°F9.3°C 44.5°F6.9°C 85% 4.6 mph N7.4 kmh N 8.1 mph13.0 kmh 29.86 in1011.2 mb - 0.00 in0.0 mm 0.00 in0.0 mm
04:30 AM 48.7°F9.3°C 44.4°F6.9°C 85% 5.8 mph 9.3 kmh 8.1 mph13.0 kmh 29.88 in1011.9 mb - 0.00 in0.0 mm 0.00 in0.0 mm
04:40 AM 48.6°F9.2°C 44.6°F7.0°C 86% 4.6 mph N7.4 kmh N 5.8 mph9.3 kmh 29.88 in1011.9 mb - 0.00 in0.0 mm 0.00 in0.0 mm
04:50 AM 48.4°F9.1°C 44.7°F7.1°C 87% 4.6 mph N7.4 kmh N 5.8 mph9.3 kmh 29.88 in1011.9 mb - 0.00 in0.0 mm 0.00 in0.0 mm
05:00 AM 48.4°F9.1°C 45.3°F7.4°C 89% 3.5 mph N5.6 kmh N 5.8 mph9.3 kmh 29.88 in1011.9 mb - 0.00 in0.0 mm 0.00 in0.0 mm
05:10 AM 48.4°F9.1°C 45.6°F7.6°C 90% 3.5 mph N5.6 kmh N 3.5 mph5.6 kmh 29.88 in1011.9 mb - 0.00 in0.0 mm 0.00 in0.0 mm
05:20 AM 48.2°F9.0°C 45.4°F7.4°C 90% 3.5 mph N5.6 kmh N 5.8 mph9.3 kmh 29.88 in1011.9 mb - 0.00 in0.0 mm 0.00 in0.0 mm
05:30 AM 48.2°F9.0°C 45.7°F7.6°C 91% 3.5 mph N5.6 kmh N 3.5 mph5.6 kmh 29.88 in1011.9 mb - 0.00 in0.0 mm 0.00 in0.0 mm
05:40 AM 48.0°F8.9°C 45.8°F7.7°C 92% 2.3 mph N3.7 kmh N 3.5 mph5.6 kmh 29.88 in1011.9 mb - 0.00 in0.0 mm 0.00 in0.0 mm
05:50 AM 48.0°F8.9°C 45.8°F7.7°C 92% Calm Calm 3.5 mph5.6 kmh 29.88 in1011.9 mb - 0.00 in0.0 mm 0.00 in0.0 mm
06:00 AM 47.8°F8.8°C 45.6°F7.6°C 92% 3.5 mph N5.6 kmh N 5.8 mph9.3 kmh 29.88 in1011.9 mb - 0.00 in0.0 mm 0.00 in0.0 mm
06:10 AM 48.0°F8.9°C 46.1°F7.8°C 93% 2.3 mph N3.7 kmh N 3.5 mph5.6 kmh 29.88 in1011.9 mb - 0.00 in0.0 mm 0.00 in0.0 mm
06:20 AM 48.4°F9.1°C 46.4°F8.0°C 93% 2.3 mph N3.7 kmh N 5.8 mph9.3 kmh 29.88 in1011.9 mb - 0.00 in0.0 mm 0.00 in0.0 mm
06:30 AM 48.3°F9.1°C 46.3°F7.9°C 93% 4.6 mph N7.4 kmh N 5.8 mph9.3 kmh 29.88 in1011.9 mb - 0.00 in0.0 mm 0.00 in0.0 mm
06:40 AM 48.2°F9.0°C 46.0°F7.8°C 92% 2.3 mph N3.7 kmh N 4.6 mph7.4 kmh 29.88 in1011.9 mb - 0.00 in0.0 mm 0.00 in0.0 mm
06:50 AM 48.2°F9.0°C 45.7°F7.6°C 91% 3.5 mph N5.6 kmh N 5.8 mph9.3 kmh 29.88 in1011.9 mb - 0.00 in0.0 mm 0.00 in0.0 mm
07:00 AM 48.2°F9.0°C 45.7°F7.6°C 91% 3.5 mph N5.6 kmh N 5.8 mph9.3 kmh 29.88 in1011.9 mb - 0.00 in0.0 mm 0.00 in0.0 mm
07:10 AM 48.8°F9.3°C 46.0°F7.8°C 90% 3.5 mph N5.6 kmh N 3.5 mph5.6 kmh 29.88 in1011.9 mb - 0.00 in0.0 mm 0.00 in0.0 mm
07:20 AM 49.3°F9.6°C 46.2°F7.9°C 89% 3.5 mph 5.6 kmh 4.6 mph7.4 kmh 29.88 in1011.9 mb - 0.00 in0.0 mm 0.00 in0.0 mm
07:30 AM 50.6°F10.3°C 46.5°F8.1°C 86% 3.5 mph N5.6 kmh N 5.8 mph9.3 kmh 29.91 in1012.9 mb - 0.00 in0.0 mm 0.00 in0.0 mm
07:40 AM 52.6°F11.4°C 47.2°F8.4°C 82% 3.5 mph N5.6 kmh N 5.8 mph9.3 kmh 29.91 in1012.9 mb - 0.00 in0.0 mm 0.00 in0.0 mm
07:50 AM 53.6°F12.0°C 46.2°F7.9°C 76% 4.6 mph N7.4 kmh N 8.1 mph13.0 kmh 29.91 in1012.9 mb - 0.00 in0.0 mm 0.00 in0.0 mm
08:00 AM 54.9°F12.7°C 46.0°F7.8°C 72% 6.9 mph NW11.1 kmh NW 10.4 mph16.7 kmh 29.91 in1012.9 mb - 0.00 in0.0 mm 0.00 in0.0 mm
08:10 AM 54.5°F12.5°C 44.2°F6.8°C 68% 8.1 mph NW13.0 kmh NW 9.2 mph14.8 kmh 29.91 in1012.9 mb - 0.00 in0.0 mm 0.00 in0.0 mm
08:20 AM 56.8°F13.8°C 46.3°F7.9°C 68% 2.3 mph NW3.7 kmh NW 5.8 mph9.3 kmh 29.91 in1012.9 mb - 0.00 in0.0 mm 0.00 in0.0 mm
08:30 AM 55.8°F13.2°C 43.8°F6.6°C 64% 6.9 mph N11.1 kmh N 12.7 mph20.4 kmh 29.91 in1012.9 mb - 0.00 in0.0 mm 0.00 in0.0 mm
08:40 AM 55.6°F13.1°C 45.6°F7.6°C 69% 5.8 mph N9.3 kmh N 8.1 mph13.0 kmh 29.91 in1012.9 mb - 0.00 in0.0 mm 0.00 in0.0 mm
08:50 AM 55.9°F13.3°C 44.7°F7.1°C 66% 3.5 mph NNW5.6 kmh NNW 4.6 mph7.4 kmh 29.91 in1012.9 mb - 0.00 in0.0 mm 0.00 in0.0 mm
09:00 AM 57.0°F13.9°C 44.9°F7.2°C 64% 5.8 mph N9.3 kmh N 5.8 mph9.3 kmh 29.91 in1012.9 mb - 0.00 in0.0 mm 0.00 in0.0 mm
09:10 AM 57.9°F14.4°C 44.6°F7.0°C 61% 5.8 mph N9.3 kmh N 8.1 mph13.0 kmh 29.91 in1012.9 mb - 0.00 in0.0 mm 0.00 in0.0 mm
09:20 AM 59.4°F15.2°C 44.7°F7.1°C 58% 4.6 mph N7.4 kmh N 5.8 mph9.3 kmh 29.91 in1012.9 mb - 0.00 in0.0 mm 0.00 in0.0 mm
09:30 AM 61.0°F16.1°C 44.3°F6.8°C 54% 6.9 mph NNW11.1 kmh NNW 10.4 mph16.7 kmh 29.91 in1012.9 mb - 0.00 in0.0 mm 0.00 in0.0 mm
09:40 AM 62.3°F16.8°C 42.3°F5.7°C 48% 4.6 mph NNW7.4 kmh NNW 8.1 mph13.0 kmh 29.91 in1012.9 mb - 0.00 in0.0 mm 0.00 in0.0 mm
09:50 AM 60.4°F15.8°C 39.5°F4.2°C 46% 6.9 mph NNW11.1 kmh NNW 8.1 mph13.0 kmh 29.91 in1012.9 mb - 0.00 in0.0 mm 0.00 in0.0 mm
10:00 AM 60.8°F16.0°C 39.9°F4.4°C 46% 5.8 mph NNW9.3 kmh NNW 9.2 mph14.8 kmh 29.91 in1012.9 mb - 0.00 in0.0 mm 0.00 in0.0 mm
10:10 AM 60.5°F15.8°C 38.5°F3.6°C 44% 8.1 mph 13.0 kmh 12.7 mph20.4 kmh 29.91 in1012.9 mb - 0.00 in0.0 mm 0.00 in0.0 mm
10:20 AM 60.3°F15.7°C 38.8°F3.8°C 45% 8.1 mph NW13.0 kmh NW 12.7 mph20.4 kmh 29.91 in1012.9 mb - 0.00 in0.0 mm 0.00 in0.0 mm
10:30 AM 61.9°F16.6°C 39.1°F3.9°C 43% 9.2 mph NNW14.8 kmh NNW 12.7 mph20.4 kmh 29.91 in1012.9 mb - 0.00 in0.0 mm 0.00 in0.0 mm
10:40 AM 62.5°F16.9°C 39.7°F4.3°C 43% 8.1 mph NNW13.0 kmh NNW 12.7 mph20.4 kmh 29.91 in1012.9 mb - 0.00 in0.0 mm 0.00 in0.0 mm
10:50 AM 63.9°F17.7°C 39.7°F4.3°C 41% 6.9 mph NW11.1 kmh NW 9.2 mph14.8 kmh 29.91 in1012.9 mb - 0.00 in0.0 mm 0.00 in0.0 mm
11:00 AM 61.0°F16.1°C 36.5°F2.5°C 40% 5.8 mph NW9.3 kmh NW 8.1 mph13.0 kmh 29.94 in1013.9 mb - 0.00 in0.0 mm 0.00 in0.0 mm
11:10 AM 61.3°F16.3°C 36.1°F2.3°C 39% 5.8 mph NNW9.3 kmh NNW 10.4 mph16.7 kmh 29.94 in1013.9 mb - 0.00 in0.0 mm 0.00 in0.0 mm
11:20 AM 63.7°F17.6°C 37.6°F3.1°C 38% 5.8 mph NW9.3 kmh NW 8.1 mph13.0 kmh 29.91 in1012.9 mb - 0.00 in0.0 mm 0.00 in0.0 mm
11:30 AM 64.4°F18.0°C 37.5°F3.1°C 37% 5.8 mph N9.3 kmh N 8.1 mph13.0 kmh 29.91 in1012.9 mb - 0.00 in0.0 mm 0.00 in0.0 mm
11:40 AM 65.0°F18.3°C 37.4°F3.0°C 36% 8.1 mph NNW13.0 kmh NNW 10.4 mph16.7 kmh 29.91 in1012.9 mb - 0.00 in0.0 mm 0.00 in0.0 mm
11:50 AM 64.2°F17.9°C 38.1°F3.4°C 38% 6.9 mph WSW11.1 kmh WSW 12.7 mph20.4 kmh 29.91 in1012.9 mb - 0.00 in0.0 mm 0.00 in0.0 mm
12:00 PM 64.5°F18.1°C 37.0°F2.8°C 36% 6.9 mph NW11.1 kmh NW 9.2 mph14.8 kmh 29.91 in1012.9 mb - 0.00 in0.0 mm 0.00 in0.0 mm
12:10 PM 62.7°F17.1°C 35.3°F1.8°C 36% 5.8 mph NW9.3 kmh NW 5.8 mph9.3 kmh 29.91 in1012.9 mb - 0.00 in0.0 mm 0.00 in0.0 mm
12:20 PM 61.9°F16.6°C 35.4°F1.9°C 37% 5.8 mph NW9.3 kmh NW 8.1 mph13.0 kmh 29.91 in1012.9 mb - 0.00 in0.0 mm 0.00 in0.0 mm
12:30 PM 60.3°F15.7°C 36.5°F2.5°C 41% 4.6 mph N7.4 kmh N 12.7 mph20.4 kmh 29.91 in1012.9 mb - 0.00 in0.0 mm 0.00 in0.0 mm
12:40 PM 59.4°F15.2°C 38.0°F3.3°C 45% 5.8 mph NE9.3 kmh NE 8.1 mph13.0 kmh 29.91 in1012.9 mb - 0.00 in0.0 mm 0.00 in0.0 mm
12:50 PM 59.7°F15.4°C 38.3°F3.5°C 45% 4.6 mph NNE7.4 kmh NNE 8.1 mph13.0 kmh 29.91 in1012.9 mb - 0.00 in0.0 mm 0.00 in0.0 mm
01:00 PM 60.6°F15.9°C 38.5°F3.6°C 44% 4.6 mph N7.4 kmh N 5.8 mph9.3 kmh 29.91 in1012.9 mb - 0.00 in0.0 mm 0.00 in0.0 mm
01:10 PM 61.9°F16.6°C 37.3°F2.9°C 40% 5.8 mph NW9.3 kmh NW 11.5 mph18.5 kmh 29.91 in1012.9 mb - 0.00 in0.0 mm 0.00 in0.0 mm
01:20 PM 63.3°F17.4°C 37.9°F3.3°C 39% 6.9 mph N11.1 kmh N 10.4 mph16.7 kmh 29.91 in1012.9 mb - 0.00 in0.0 mm 0.00 in0.0 mm
01:30 PM 64.9°F18.3°C 37.3°F2.9°C 36% 10.4 mph NNW16.7 kmh NNW 16.1 mph25.9 kmh 29.91 in1012.9 mb - 0.00 in0.0 mm 0.00 in0.0 mm
01:40 PM 62.3°F16.8°C 36.4°F2.4°C 38% 6.9 mph N11.1 kmh N 8.1 mph13.0 kmh 29.91 in1012.9 mb - 0.00 in0.0 mm 0.00 in0.0 mm
01:50 PM 63.0°F17.2°C 36.3°F2.4°C 37% 8.1 mph N13.0 kmh N 9.2 mph14.8 kmh 29.91 in1012.9 mb - 0.00 in0.0 mm 0.00 in0.0 mm
02:00 PM 67.2°F19.6°C 38.6°F3.7°C 35% 4.6 mph NW7.4 kmh NW 8.1 mph13.0 kmh 29.91 in1012.9 mb - 0.00 in0.0 mm 0.00 in0.0 mm
02:10 PM 66.5°F19.2°C 37.3°F2.9°C 34% 9.2 mph N14.8 kmh N 15.0 mph24.1 kmh 29.91 in1012.9 mb - 0.00 in0.0 mm 0.00 in0.0 mm
02:20 PM 64.8°F18.2°C 36.5°F2.5°C 35% 10.4 mph N16.7 kmh N 11.5 mph18.5 kmh 29.91 in1012.9 mb - 0.00 in0.0 mm 0.00 in0.0 mm
02:30 PM 64.3°F17.9°C 36.1°F2.3°C 35% 6.9 mph N11.1 kmh N 10.4 mph16.7 kmh 29.91 in1012.9 mb - 0.00 in0.0 mm 0.00 in0.0 mm
02:40 PM 63.7°F17.6°C 35.5°F1.9°C 35% 8.1 mph N13.0 kmh N 12.7 mph20.4 kmh 29.91 in1012.9 mb - 0.00 in0.0 mm 0.00 in0.0 mm
02:50 PM 65.3°F18.5°C 36.9°F2.7°C 35% 8.1 mph N13.0 kmh N 10.4 mph16.7 kmh 29.91 in1012.9 mb - 0.00 in0.0 mm 0.00 in0.0 mm
03:00 PM 67.7°F19.8°C 38.3°F3.5°C 34% 6.9 mph NW11.1 kmh NW 11.5 mph18.5 kmh 29.91 in1012.9 mb - 0.00 in0.0 mm 0.00 in0.0 mm
03:10 PM 68.7°F20.4°C 39.2°F4.0°C 34% 4.6 mph N7.4 kmh N 8.1 mph13.0 kmh 29.91 in1012.9 mb - 0.00 in0.0 mm 0.00 in0.0 mm
03:20 PM 65.5°F18.6°C 36.4°F2.4°C 34% 6.9 mph N11.1 kmh N 9.2 mph14.8 kmh 29.88 in1011.9 mb - 0.00 in0.0 mm 0.00 in0.0 mm
03:30 PM 67.4°F19.7°C 37.3°F2.9°C 33% 6.9 mph NNW11.1 kmh NNW 11.5 mph18.5 kmh 29.88 in1011.9 mb - 0.00 in0.0 mm 0.00 in0.0 mm
03:40 PM 67.3°F19.6°C 37.2°F2.9°C 33% 8.1 mph N13.0 kmh N 11.5 mph18.5 kmh 29.88 in1011.9 mb - 0.00 in0.0 mm 0.00 in0.0 mm
03:50 PM 68.2°F20.1°C 37.2°F2.9°C 32% 5.8 mph N9.3 kmh N 5.8 mph9.3 kmh 29.88 in1011.9 mb - 0.00 in0.0 mm 0.00 in0.0 mm
04:00 PM 69.5°F20.8°C 38.3°F3.5°C 32% 6.9 mph N11.1 kmh N 8.1 mph13.0 kmh 29.88 in1011.9 mb - 0.00 in0.0 mm 0.00 in0.0 mm
04:10 PM 67.1°F19.5°C 37.0°F2.8°C 33% 4.6 mph N7.4 kmh N 12.7 mph20.4 kmh 29.88 in1011.9 mb - 0.00 in0.0 mm 0.00 in0.0 mm
04:20 PM 67.6°F19.8°C 38.2°F3.4°C 34% 9.2 mph N14.8 kmh N 12.7 mph20.4 kmh 29.88 in1011.9 mb - 0.00 in0.0 mm 0.00 in0.0 mm
04:30 PM 65.8°F18.8°C 36.7°F2.6°C 34% 6.9 mph NNW11.1 kmh NNW 10.4 mph16.7 kmh 29.88 in1011.9 mb - 0.00 in0.0 mm 0.00 in0.0 mm
04:40 PM 66.5°F19.2°C 36.5°F2.5°C 33% 8.1 mph NNW13.0 kmh NNW 9.2 mph14.8 kmh 29.88 in1011.9 mb - 0.00 in0.0 mm 0.00 in0.0 mm
04:50 PM 66.4°F19.1°C 35.7°F2.1°C 32% 9.2 mph N14.8 kmh N 12.7 mph20.4 kmh 29.88 in1011.9 mb - 0.00 in0.0 mm 0.00 in0.0 mm
05:00 PM 66.5°F19.2°C 36.5°F2.5°C 33% 8.1 mph N13.0 kmh N 11.5 mph18.5 kmh 29.88 in1011.9 mb - 0.00 in0.0 mm 0.00 in0.0 mm
05:10 PM 66.0°F18.9°C 36.8°F2.7°C 34% 8.1 mph N13.0 kmh N 10.4 mph16.7 kmh 29.88 in1011.9 mb - 0.00 in0.0 mm 0.00 in0.0 mm
05:20 PM 65.9°F18.8°C 35.9°F2.2°C 33% 8.1 mph N13.0 kmh N 15.0 mph24.1 kmh 29.88 in1011.9 mb - 0.00 in0.0 mm 0.00 in0.0 mm
05:30 PM 64.0°F17.8°C 34.3°F1.3°C 33% 8.1 mph N13.0 kmh N 10.4 mph16.7 kmh 29.88 in1011.9 mb - 0.00 in0.0 mm 0.00 in0.0 mm
05:40 PM 64.7°F18.2°C 35.0°F1.7°C 33% 6.9 mph NNW11.1 kmh NNW 11.5 mph18.5 kmh 29.88 in1011.9 mb - 0.00 in0.0 mm 0.00 in0.0 mm
05:50 PM 64.3°F17.9°C 35.3°F1.8°C 34% 5.8 mph NNW9.3 kmh NNW 5.8 mph9.3 kmh 29.88 in1011.9 mb - 0.00 in0.0 mm 0.00 in0.0 mm
06:00 PM 63.5°F17.5°C 35.4°F1.9°C 35% 6.9 mph NNW11.1 kmh NNW 8.1 mph13.0 kmh 29.88 in1011.9 mb - 0.00 in0.0 mm 0.00 in0.0 mm
06:10 PM 63.5°F17.5°C 36.0°F2.2°C 36% 5.8 mph N9.3 kmh N 8.1 mph13.0 kmh 29.88 in1011.9 mb - 0.00 in0.0 mm 0.00 in0.0 mm
06:20 PM 62.4°F16.9°C 35.8°F2.1°C 37% 5.8 mph N9.3 kmh N 11.5 mph18.5 kmh 29.88 in1011.9 mb - 0.00 in0.0 mm 0.00 in0.0 mm
06:30 PM 61.9°F16.6°C 34.6°F1.4°C 36% 6.9 mph N11.1 kmh N 9.2 mph14.8 kmh 29.88 in1011.9 mb - 0.00 in0.0 mm 0.00 in0.0 mm
06:40 PM 61.2°F16.2°C 34.7°F1.5°C 37% 4.6 mph N7.4 kmh N 5.8 mph9.3 kmh 29.88 in1011.9 mb - 0.00 in0.0 mm 0.00 in0.0 mm
06:50 PM 60.6°F15.9°C 34.2°F1.2°C 37% 3.5 mph NNW5.6 kmh NNW 5.8 mph9.3 kmh 29.88 in1011.9 mb - 0.00 in0.0 mm 0.00 in0.0 mm
07:00 PM 59.9°F15.5°C 34.2°F1.2°C 38% 3.5 mph NW5.6 kmh NW 4.6 mph7.4 kmh 29.91 in1012.9 mb - 0.00 in0.0 mm 0.00 in0.0 mm
07:10 PM 59.2°F15.1°C 34.2°F1.2°C 39% 3.5 mph WNW5.6 kmh WNW 3.5 mph5.6 kmh 29.91 in1012.9 mb - 0.00 in0.0 mm 0.00 in0.0 mm
07:20 PM 58.5°F14.7°C 33.6°F0.9°C 39% Calm Calm 2.3 mph3.7 kmh 29.91 in1012.9 mb - 0.00 in0.0 mm 0.00 in0.0 mm
07:30 PM 57.8°F14.3°C 33.6°F0.9°C 40% 1.2 mph WNW1.9 kmh WNW 3.5 mph5.6 kmh 29.91 in1012.9 mb - 0.00 in0.0 mm 0.00 in0.0 mm
07:40 PM 57.0°F13.9°C 33.5°F0.8°C 41% 1.2 mph WNW1.9 kmh WNW 2.3 mph3.7 kmh 29.91 in1012.9 mb - 0.00 in0.0 mm 0.00 in0.0 mm
07:50 PM 56.4°F13.6°C 34.2°F1.2°C 43% Calm Calm -- 29.91 in1012.9 mb - 0.00 in0.0 mm 0.00 in0.0 mm
08:00 PM 55.8°F13.2°C 34.2°F1.2°C 44% Calm Calm -- 29.91 in1012.9 mb - 0.00 in0.0 mm 0.00 in0.0 mm
08:10 PM 55.1°F12.8°C 34.7°F1.5°C 46% Calm Calm 3.5 mph5.6 kmh 29.91 in1012.9 mb - 0.00 in0.0 mm 0.00 in0.0 mm
08:20 PM 54.5°F12.5°C 34.1°F1.2°C 46% Calm Calm -- 29.91 in1012.9 mb - 0.00 in0.0 mm 0.00 in0.0 mm
08:30 PM 53.8°F12.1°C 34.0°F1.1°C 47% Calm Calm -- 29.91 in1012.9 mb - 0.00 in0.0 mm 0.00 in0.0 mm
08:40 PM 53.1°F11.7°C 33.9°F1.1°C 48% Calm Calm -- 29.91 in1012.9 mb - 0.00 in0.0 mm 0.00 in0.0 mm
08:50 PM 52.5°F11.4°C 33.9°F1.1°C 49% Calm Calm -- 29.91 in1012.9 mb - 0.00 in0.0 mm 0.00 in0.0 mm
09:00 PM 51.9°F11.1°C 33.8°F1.0°C 50% Calm Calm -- 29.94 in1013.9 mb - 0.00 in0.0 mm 0.00 in0.0 mm
09:10 PM 51.6°F10.9°C 34.6°F1.4°C 52% Calm Calm -- 29.94 in1013.9 mb - 0.00 in0.0 mm 0.00 in0.0 mm
09:20 PM 51.4°F10.8°C 34.8°F1.6°C 53% Calm Calm -- 29.94 in1013.9 mb - 0.00 in0.0 mm 0.00 in0.0 mm
09:30 PM 51.1°F10.6°C 35.0°F1.7°C 54% Calm Calm -- 29.94 in1013.9 mb - 0.00 in0.0 mm 0.00 in0.0 mm
09:40 PM 50.7°F10.4°C 35.1°F1.7°C 55% Calm Calm -- 29.94 in1013.9 mb - 0.00 in0.0 mm 0.00 in0.0 mm
09:50 PM 50.2°F10.1°C 35.1°F1.7°C 56% Calm Calm -- 29.94 in1013.9 mb - 0.00 in0.0 mm 0.00 in0.0 mm
10:00 PM 49.8°F9.9°C 35.2°F1.8°C 57% Calm Calm 3.5 mph5.6 kmh 29.94 in1013.9 mb - 0.00 in0.0 mm 0.00 in0.0 mm
10:10 PM 49.3°F9.6°C 35.5°F1.9°C 59% Calm Calm -- 29.94 in1013.9 mb - 0.00 in0.0 mm 0.00 in0.0 mm
10:20 PM 48.7°F9.3°C 36.3°F2.4°C 62% Calm Calm -- 29.94 in1013.9 mb - 0.00 in0.0 mm 0.00 in0.0 mm
10:30 PM 48.2°F9.0°C 37.0°F2.8°C 65% Calm Calm -- 29.94 in1013.9 mb - 0.00 in0.0 mm 0.00 in0.0 mm
10:40 PM 48.0°F8.9°C 37.6°F3.1°C 67% Calm Calm -- 29.94 in1013.9 mb - 0.00 in0.0 mm 0.00 in0.0 mm
10:50 PM 47.5°F8.6°C 37.5°F3.1°C 68% Calm Calm -- 29.94 in1013.9 mb - 0.00 in0.0 mm 0.00 in0.0 mm
11:00 PM 47.2°F8.4°C 37.2°F2.9°C 68% Calm Calm -- 29.94 in1013.9 mb - 0.00 in0.0 mm 0.00 in0.0 mm
11:10 PM 46.8°F8.2°C 37.1°F2.8°C 69% Calm Calm -- 29.94 in1013.9 mb - 0.00 in0.0 mm 0.00 in0.0 mm
11:20 PM 46.3°F7.9°C 37.0°F2.8°C 70% Calm Calm -- 29.94 in1013.9 mb - 0.00 in0.0 mm 0.00 in0.0 mm
11:30 PM 45.9°F7.7°C 37.0°F2.8°C 71% Calm Calm -- 29.94 in1013.9 mb - 0.00 in0.0 mm 0.00 in0.0 mm
11:40 PM 45.5°F7.5°C 37.0°F2.8°C 72% Calm Calm -- 29.94 in1013.9 mb - 0.00 in0.0 mm 0.00 in0.0 mm
11:50 PM 45.1°F7.3°C 37.0°F2.8°C 73% Calm Calm -- 29.94 in1013.9 mb - 0.00 in0.0 mm 0.00 in0.0 mm